createdAt,value
2018-02-17T00:01:06.122Z,91.80
2018-02-17T00:05:08.670Z,91.80
2018-02-17T00:09:11.250Z,91.90
2018-02-17T00:13:13.774Z,91.90
2018-02-17T00:17:16.318Z,92.00
2018-02-17T00:21:18.896Z,92.00
2018-02-17T00:25:22.198Z,92.10
2018-02-17T00:29:25.489Z,92.10
2018-02-17T00:33:28.040Z,92.10
2018-02-17T00:37:30.571Z,92.10
2018-02-17T00:41:33.872Z,91.90
2018-02-17T00:45:36.409Z,91.90
2018-02-17T00:49:38.945Z,91.90
2018-02-17T00:53:41.489Z,91.90
2018-02-17T00:57:44.033Z,91.90
2018-02-17T01:01:47.338Z,92.00
2018-02-17T01:05:50.632Z,92.00
2018-02-17T01:09:53.241Z,92.00
2018-02-17T01:13:56.549Z,92.00
2018-02-17T01:17:59.870Z,91.90
2018-02-17T01:22:02.404Z,91.90
2018-02-17T01:26:04.925Z,91.90
2018-02-17T01:30:08.248Z,91.90
2018-02-17T01:34:10.758Z,91.90
2018-02-17T01:38:13.293Z,92.00
2018-02-17T01:42:15.827Z,92.00
2018-02-17T01:46:18.377Z,92.40
2018-02-17T01:50:32.637Z,92.40
2018-02-17T01:54:35.174Z,92.10
2018-02-17T01:58:37.713Z,92.20
2018-02-17T02:02:41.047Z,92.10
2018-02-17T02:06:43.562Z,92.10
2018-02-17T02:10:46.088Z,92.10
2018-02-17T02:14:48.620Z,92.20
2018-02-17T02:18:51.158Z,92.10
2018-02-17T02:22:53.689Z,92.00
2018-02-17T02:26:56.229Z,92.00
2018-02-17T02:30:58.803Z,92.10
2018-02-17T02:35:01.306Z,91.90
2018-02-17T02:39:03.837Z,91.90
2018-02-17T02:43:06.375Z,92.00
2018-02-17T02:47:08.923Z,92.10
2018-02-17T02:51:11.470Z,92.00
2018-02-17T02:55:14.756Z,91.80
2018-02-17T02:59:18.066Z,91.80
2018-02-17T03:03:21.357Z,91.70
2018-02-17T03:07:23.890Z,91.70
2018-02-17T03:11:26.432Z,91.70
2018-02-17T03:15:28.967Z,91.70
2018-02-17T03:19:31.490Z,91.60
2018-02-17T03:23:34.023Z,91.70
2018-02-17T03:27:36.541Z,91.60
2018-02-17T03:31:39.069Z,91.70
2018-02-17T03:35:42.364Z,91.70
2018-02-17T03:39:44.909Z,91.70
2018-02-17T03:43:47.550Z,91.70
2018-02-17T03:47:50.853Z,91.70
2018-02-17T03:51:54.128Z,91.70
2018-02-17T03:55:56.659Z,91.70
2018-02-17T03:59:59.199Z,91.80
2018-02-17T04:04:01.929Z,91.80
2018-02-17T04:08:05.785Z,91.70
2018-02-17T04:12:08.320Z,91.60
2018-02-17T04:16:11.580Z,91.60
2018-02-17T04:20:14.113Z,91.60
2018-02-17T04:24:17.380Z,91.50
2018-02-17T04:28:19.940Z,91.50
2018-02-17T04:32:22.482Z,91.50
2018-02-17T04:36:25.784Z,91.40
2018-02-17T04:40:43.907Z,91.30
2018-02-17T04:49:35.613Z,91.30
2018-02-17T04:53:44.519Z,91.30
2018-02-17T04:57:49.694Z,91.30
2018-02-17T05:01:54.430Z,91.40
2018-02-17T05:06:13.506Z,91.40
2018-02-17T05:10:16.792Z,91.40
2018-02-17T05:14:23.253Z,91.40
2018-02-17T05:18:25.809Z,91.30
2018-02-17T05:22:43.277Z,91.30
2018-02-17T05:26:50.290Z,91.20
2018-02-17T05:31:09.528Z,91.30
2018-02-17T05:35:16.902Z,91.00
2018-02-17T05:39:20.201Z,91.10
2018-02-17T05:43:22.734Z,91.00
2018-02-17T05:47:26.034Z,91.00
2018-02-17T05:51:28.555Z,91.00
2018-02-17T05:55:31.077Z,91.00
2018-02-17T05:59:33.601Z,91.00
2018-02-17T06:03:36.112Z,90.90
2018-02-17T06:07:38.678Z,91.00
2018-02-17T06:11:41.957Z,91.00
2018-02-17T06:15:44.489Z,91.00
2018-02-17T06:19:46.998Z,90.90
2018-02-17T06:23:49.836Z,91.00
2018-02-17T06:27:52.338Z,91.10
2018-02-17T06:31:55.946Z,91.20
2018-02-17T06:35:59.238Z,91.10
2018-02-17T06:40:01.874Z,91.10
2018-02-17T06:44:04.374Z,91.00
2018-02-17T06:48:06.901Z,90.90
2018-02-17T06:52:10.189Z,90.90
2018-02-17T06:56:12.708Z,90.90
2018-02-17T07:00:16.110Z,91.00
2018-02-17T07:04:18.646Z,90.90
2018-02-17T07:08:21.152Z,90.80
2018-02-17T07:12:23.766Z,90.80
2018-02-17T07:16:27.040Z,90.60
2018-02-17T07:20:29.574Z,90.60
2018-02-17T07:24:32.092Z,90.30
2018-02-17T07:28:34.622Z,90.30
2018-02-17T07:32:38.007Z,90.10
2018-02-17T07:36:40.531Z,90.10
2018-02-17T07:40:43.057Z,89.80
2018-02-17T07:44:45.628Z,89.30
2018-02-17T07:48:48.158Z,88.70
2018-02-17T07:52:50.696Z,88.50
2018-02-17T07:56:53.223Z,88.20
2018-02-17T08:00:56.534Z,87.60
2018-02-17T08:04:59.073Z,87.50
2018-02-17T08:09:01.787Z,87.30
2018-02-17T08:13:04.314Z,86.80
2018-02-17T08:17:07.614Z,85.00
2018-02-17T08:21:10.905Z,84.30
2018-02-17T08:25:13.436Z,84.30
2018-02-17T08:29:16.029Z,84.30
2018-02-17T08:33:18.566Z,84.30
2018-02-17T08:37:21.139Z,84.60
2018-02-17T08:41:23.646Z,84.60
2018-02-17T08:45:26.945Z,85.20
2018-02-17T08:49:30.285Z,85.20
2018-02-17T08:53:32.821Z,85.10
2018-02-17T08:57:35.332Z,85.50
2018-02-17T09:01:38.630Z,85.40
2018-02-17T09:05:41.908Z,85.30
2018-02-17T09:09:44.466Z,85.20
2018-02-17T09:13:46.970Z,85.60
2018-02-17T09:17:49.531Z,85.60
2018-02-17T09:21:52.052Z,85.70
2018-02-17T09:25:56.212Z,85.50
2018-02-17T09:29:59.490Z,84.40
2018-02-17T09:34:02.003Z,84.30
2018-02-17T09:38:05.284Z,84.60
2018-02-17T09:42:07.822Z,84.50
2018-02-17T09:46:10.336Z,84.40
2018-02-17T09:50:12.865Z,84.40
2018-02-17T09:54:15.394Z,83.40
2018-02-17T09:58:17.911Z,83.20
2018-02-17T10:02:20.477Z,83.20
2018-02-17T10:06:22.997Z,83.40
2018-02-17T10:10:26.393Z,82.80
2018-02-17T10:14:28.888Z,82.80
2018-02-17T10:18:32.185Z,83.00
2018-02-17T10:22:35.491Z,83.50
2018-02-17T10:26:38.789Z,82.60
2018-02-17T10:30:41.304Z,82.20
2018-02-17T10:34:43.846Z,81.80
2018-02-17T10:38:46.395Z,81.70
2018-02-17T10:42:48.935Z,82.30
2018-02-17T10:46:51.471Z,81.90
2018-02-17T10:50:54.000Z,81.60
2018-02-17T10:54:56.516Z,81.10
2018-02-17T10:58:59.051Z,80.60
2018-02-17T11:03:04.362Z,80.20
2018-02-17T11:07:23.386Z,79.90
2018-02-17T11:11:25.896Z,79.20
2018-02-17T11:15:29.209Z,79.10
2018-02-17T11:19:33.049Z,78.80
2018-02-17T11:23:35.595Z,78.70
2018-02-17T11:27:38.229Z,80.30
2018-02-17T11:31:40.758Z,77.30
2018-02-17T11:35:43.305Z,76.60
2018-02-17T11:39:46.581Z,77.10
2018-02-17T11:43:49.090Z,77.10
2018-02-17T11:47:51.624Z,76.60
2018-02-17T11:51:54.153Z,77.50
2018-02-17T11:55:56.697Z,77.60
2018-02-17T11:59:59.221Z,78.10
2018-02-17T12:04:01.888Z,78.40
2018-02-17T12:08:05.156Z,77.80
2018-02-17T12:12:07.678Z,77.80
2018-02-17T12:16:10.985Z,77.90
2018-02-17T12:20:14.300Z,78.40
2018-02-17T12:24:17.473Z,78.20
2018-02-17T12:28:20.012Z,78.80
2018-02-17T12:32:23.303Z,78.90
2018-02-17T12:36:25.834Z,78.50
2018-02-17T12:40:28.351Z,78.60
2018-02-17T12:44:31.644Z,80.10
2018-02-17T12:48:39.064Z,89.70
2018-02-17T12:52:41.592Z,89.50
2018-02-17T12:56:44.105Z,85.20
2018-02-17T13:00:46.724Z,78.50
2018-02-17T13:04:50.018Z,67.40
2018-02-17T13:08:53.319Z,64.30
2018-02-17T13:12:56.592Z,66.50
2018-02-17T13:16:59.206Z,66.50
2018-02-17T13:21:02.477Z,68.80
2018-02-17T13:25:05.003Z,68.80
2018-02-17T13:29:07.512Z,69.10
2018-02-17T13:33:10.075Z,67.10
2018-02-17T13:37:13.344Z,69.60
2018-02-17T13:41:15.871Z,69.50
2018-02-17T13:45:19.159Z,61.50
2018-02-17T13:49:22.477Z,60.30
2018-02-17T13:53:25.807Z,57.90
2018-02-17T13:57:28.282Z,57.90
2018-02-17T14:01:30.798Z,58.60
2018-02-17T14:05:33.337Z,59.00
2018-02-17T14:09:35.858Z,58.00
2018-02-17T14:13:38.391Z,57.30
2018-02-17T14:17:40.902Z,57.20
2018-02-17T14:21:43.455Z,57.40
2018-02-17T14:25:45.960Z,58.80
2018-02-17T14:29:49.297Z,59.20
2018-02-17T14:33:51.810Z,58.60
2018-02-17T14:37:54.354Z,60.70
2018-02-17T14:41:56.873Z,63.40
2018-02-17T14:45:59.707Z,64.50
2018-02-17T14:50:02.978Z,65.70
2018-02-17T14:54:05.499Z,65.70
2018-02-17T14:58:08.030Z,64.80
2018-02-17T15:02:10.568Z,65.60
2018-02-17T15:06:14.170Z,67.20
2018-02-17T15:10:16.687Z,66.50
2018-02-17T15:14:19.255Z,66.00
2018-02-17T15:18:22.778Z,68.10
2018-02-17T15:22:25.756Z,68.00
2018-02-17T15:26:28.351Z,68.90
2018-02-17T15:30:31.762Z,69.60
2018-02-17T15:34:35.095Z,70.40
2018-02-17T15:38:37.657Z,70.40
2018-02-17T15:42:41.502Z,71.70
2018-02-17T15:46:44.006Z,71.70
2018-02-17T15:50:46.656Z,71.60
2018-02-17T15:54:49.167Z,71.60
2018-02-17T15:58:51.722Z,71.20
2018-02-17T16:02:55.116Z,68.20
2018-02-17T16:06:59.130Z,64.50
2018-02-17T16:11:01.638Z,64.50
2018-02-17T16:15:04.197Z,61.60
2018-02-17T16:19:08.091Z,60.30
2018-02-17T16:23:10.605Z,59.70
2018-02-17T16:27:13.163Z,62.60
2018-02-17T16:31:15.663Z,63.80
2018-02-17T16:35:18.214Z,59.90
2018-02-17T16:39:20.744Z,59.10
2018-02-17T16:43:23.280Z,58.40
2018-02-17T16:47:25.794Z,61.10
2018-02-17T16:51:28.444Z,64.30
2018-02-17T16:59:39.943Z,71.70
2018-02-17T17:03:43.212Z,73.00
2018-02-17T17:07:45.740Z,72.90
2018-02-17T17:11:49.015Z,74.10
2018-02-17T17:15:51.550Z,73.90
2018-02-17T17:19:54.056Z,74.50
2018-02-17T17:23:56.592Z,75.50
2018-02-17T17:27:59.861Z,77.90
2018-02-17T17:32:02.968Z,77.80
2018-02-17T17:36:05.480Z,79.20
2018-02-17T17:40:08.798Z,81.40
2018-02-17T17:44:11.313Z,81.30
2018-02-17T17:48:14.552Z,81.60
2018-02-17T17:52:17.108Z,81.70
2018-02-17T17:56:19.641Z,82.00
2018-02-17T18:00:22.968Z,82.60
2018-02-17T18:04:25.518Z,82.60
2018-02-17T18:08:28.037Z,82.70
2018-02-17T18:12:30.572Z,83.30
2018-02-17T18:16:33.100Z,83.90
2018-02-17T18:20:36.415Z,84.80
2018-02-17T18:24:38.953Z,84.80
2018-02-17T18:28:41.511Z,85.10
2018-02-17T18:32:44.069Z,85.30
2018-02-17T18:36:46.618Z,85.70
2018-02-17T18:40:49.184Z,85.50
2018-02-17T18:44:51.695Z,85.60
2018-02-17T18:48:54.250Z,85.70
2018-02-17T18:52:56.761Z,85.80
2018-02-17T18:56:59.298Z,85.90
2018-02-17T19:01:01.825Z,85.90
2018-02-17T19:05:04.376Z,85.50
2018-02-17T19:09:06.911Z,85.70
2018-02-17T19:13:09.457Z,86.00
2018-02-17T19:17:12.021Z,86.10
2018-02-17T19:21:15.304Z,86.40
2018-02-17T19:25:18.605Z,86.70
2018-02-17T19:29:21.193Z,86.70
2018-02-17T19:33:24.512Z,87.00
2018-02-17T19:37:27.849Z,87.10
2018-02-17T19:41:30.390Z,87.10
2018-02-17T19:45:33.727Z,87.10
2018-02-17T19:49:36.261Z,87.10
2018-02-17T19:53:38.830Z,87.20
2018-02-17T19:57:41.348Z,87.20
2018-02-17T20:01:44.668Z,87.30
2018-02-17T20:05:48.000Z,87.10
2018-02-17T20:09:50.574Z,87.00
2018-02-17T20:13:53.167Z,86.90
2018-02-17T20:17:56.450Z,86.90
2018-02-17T20:21:59.919Z,86.90
2018-02-17T20:26:02.522Z,87.10
2018-02-17T20:30:06.224Z,87.30
2018-02-17T20:34:08.811Z,87.20
2018-02-17T20:38:11.349Z,87.50
2018-02-17T20:42:13.987Z,87.50
2018-02-17T20:46:17.569Z,87.50
2018-02-17T20:50:20.200Z,87.30
2018-02-17T20:54:22.763Z,87.40
2018-02-17T20:58:25.417Z,87.60
2018-02-17T21:02:28.007Z,87.70
2018-02-17T21:06:30.562Z,87.80
2018-02-17T21:10:33.873Z,87.90
2018-02-17T21:14:37.591Z,87.90
2018-02-17T21:18:40.188Z,87.90
2018-02-17T21:22:42.795Z,88.10
2018-02-17T21:26:45.385Z,88.20
2018-02-17T21:30:47.968Z,88.40
2018-02-17T21:34:54.194Z,88.60
2018-02-17T21:38:57.525Z,88.50
2018-02-17T21:43:00.069Z,88.40
2018-02-17T21:47:02.708Z,88.40
2018-02-17T21:51:05.257Z,89.20
2018-02-17T21:55:08.610Z,88.40
2018-02-17T21:59:11.138Z,88.40
2018-02-17T22:03:13.811Z,88.70
2018-02-17T22:07:16.372Z,89.40
2018-02-17T22:11:18.925Z,88.70
2018-02-17T22:15:22.281Z,88.90
2018-02-17T22:19:24.810Z,88.80
2018-02-17T22:23:28.158Z,88.80
2018-02-17T22:27:30.682Z,88.80
2018-02-17T22:31:33.242Z,88.80
2018-02-17T22:35:35.761Z,89.00
2018-02-17T22:39:38.880Z,89.00
2018-02-17T22:43:42.178Z,89.40
2018-02-17T22:47:45.489Z,89.60
2018-02-17T22:51:48.779Z,89.50
2018-02-17T22:55:52.422Z,90.00
2018-02-17T22:59:54.970Z,89.50
2018-02-17T23:03:57.570Z,89.50
2018-02-17T23:08:00.909Z,89.50
2018-02-17T23:12:03.525Z,89.40
2018-02-17T23:16:06.067Z,89.50
2018-02-17T23:20:08.589Z,89.80
2018-02-17T23:24:11.181Z,89.90
2018-02-17T23:28:13.725Z,90.00
2018-02-17T23:32:16.245Z,90.00
2018-02-17T23:36:18.782Z,90.00
2018-02-17T23:40:22.079Z,90.20
2018-02-17T23:44:25.404Z,90.30
2018-02-17T23:48:27.949Z,90.30
2018-02-17T23:52:30.471Z,90.20
2018-02-17T23:56:33.034Z,90.20
